Time;durP1;ratioP1;P1;durP2;ratioP2;P2;SDS_P1;SDS_P2;PMS_P1;PMS_P2;Temp;Humidity;BMP_temperature;BMP_pressure;BME280_temperature;BME280_humidity;BME280_pressure;Samples;Min_cycle;Max_cycle;Signal;HPM_P1;HPM_P2
2022/04/21 00:02:46;;;;;;;7.68;4.43;;;11.00;54.40;;;;;;9182448;19;20011;-63
2022/04/21 00:05:54;;;;;;;12.40;4.70;;;11.00;54.60;;;;;;9180570;19;20014;-64
2022/04/21 00:08:59;;;;;;;7.80;4.60;;;10.90;54.70;;;;;;9181033;19;20006;-64
2022/04/21 00:12:04;;;;;;;12.23;4.78;;;10.80;54.80;;;;;;9181594;19;20107;-63
2022/04/21 00:15:14;;;;;;;9.40;4.30;;;10.80;54.90;;;;;;9179341;19;20403;-63
2022/04/21 00:18:19;;;;;;;9.75;5.00;;;10.70;55.00;;;;;;9183153;19;20026;-63
2022/04/21 00:23:25;;;;;;;12.30;4.63;;;10.70;55.20;;;;;;9175515;19;20026;-63
2022/04/21 00:24:49;;;;;;;8.73;4.80;;;10.60;55.30;;;;;;9182306;19;20360;-63
2022/04/21 00:27:55;;;;;;;14.75;4.60;;;10.60;55.30;;;;;;9180332;19;20518;-63
2022/04/21 00:31:03;;;;;;;14.98;4.88;;;10.60;55.40;;;;;;9181874;19;20018;-63
2022/04/21 00:34:09;;;;;;;8.50;4.70;;;10.50;55.40;;;;;;9180682;19;20356;-63
2022/04/21 00:37:17;;;;;;;8.07;4.93;;;10.50;55.50;;;;;;9179373;19;20363;-63
2022/04/21 00:40:26;;;;;;;10.88;4.28;;;10.50;55.60;;;;;;9177651;19;20006;-62
2022/04/21 00:43:32;;;;;;;6.68;3.85;;;10.50;55.70;;;;;;9181817;19;20380;-63
2022/04/21 00:46:40;;;;;;;5.40;4.10;;;10.40;55.70;;;;;;9180070;19;20033;-63
2022/04/21 00:49:46;;;;;;;10.25;4.53;;;10.40;55.80;;;;;;9181936;19;20019;-64
2022/04/21 00:52:56;;;;;;;5.65;3.88;;;10.40;55.80;;;;;;9182620;19;20021;-64
2022/04/21 00:56:02;;;;;;;10.82;3.80;;;10.30;56.00;;;;;;9181388;19;20030;-64
2022/04/21 00:59:08;;;;;;;7.85;4.55;;;10.40;56.00;;;;;;9180357;19;20010;-63
2022/04/21 01:05:34;;;;;;;13.60;5.03;;;10.30;56.20;;;;;;9180468;19;20019;-63
2022/04/21 01:08:42;;;;;;;9.18;4.53;;;10.20;56.20;;;;;;9179132;19;20078;-63
2022/04/21 01:11:47;;;;;;;11.93;4.32;;;10.10;56.30;;;;;;9179745;19;20007;-63
2022/04/21 01:14:52;;;;;;;14.57;4.50;;;10.10;56.30;;;;;;9178553;19;20037;-62
2022/04/21 01:17:57;;;;;;;6.57;4.03;;;10.10;56.40;;;;;;9179316;19;20018;-63
2022/04/21 01:21:05;;;;;;;7.97;4.75;;;10.10;56.50;;;;;;9173572;19;20024;-63
2022/04/21 01:24:10;;;;;;;6.22;3.92;;;10.00;56.60;;;;;;9180857;19;20104;-65
2022/04/21 01:27:15;;;;;;;12.02;4.40;;;10.00;56.70;;;;;;9177497;19;20015;-62
2022/04/21 01:30:20;;;;;;;6.90;3.85;;;10.00;56.70;;;;;;9176611;19;20360;-62
2022/04/21 01:33:25;;;;;;;5.65;3.60;;;10.00;56.70;;;;;;9180315;19;20119;-62
2022/04/21 01:36:33;;;;;;;7.78;4.13;;;10.00;56.80;;;;;;9180426;19;20044;-61
2022/04/21 01:42:55;;;;;;;14.07;4.38;;;9.90;56.90;;;;;;9179801;19;20018;-61
2022/04/21 01:46:00;;;;;;;6.57;4.20;;;9.90;57.00;;;;;;9187149;19;20017;-62
2022/04/21 01:49:05;;;;;;;5.72;3.60;;;9.90;57.00;;;;;;9189580;19;20020;-63
2022/04/21 01:52:13;;;;;;;8.05;3.70;;;9.90;57.10;;;;;;9189048;19;20030;-63
2022/04/21 01:55:18;;;;;;;8.27;4.47;;;9.80;57.10;;;;;;9189128;19;20011;-63
2022/04/21 01:58:23;;;;;;;5.97;3.80;;;9.80;57.10;;;;;;9186989;19;20022;-62
2022/04/21 02:01:27;;;;;;;7.90;4.07;;;9.80;57.20;;;;;;9183726;19;20019;-63
2022/04/21 02:04:33;;;;;;;9.73;3.83;;;9.80;57.20;;;;;;9186785;19;20018;-63
2022/04/21 02:07:44;;;;;;;6.40;4.13;;;9.80;57.30;;;;;;9185589;19;20021;-63
2022/04/21 02:10:49;;;;;;;7.70;4.05;;;9.80;57.40;;;;;;9186410;19;20074;-63
2022/04/21 02:13:54;;;;;;;7.13;3.40;;;9.70;57.30;;;;;;9186613;19;20475;-65
2022/04/21 02:16:59;;;;;;;8.15;3.90;;;9.70;57.40;;;;;;9184687;19;20014;-63
2022/04/21 02:20:06;;;;;;;7.50;4.00;;;9.70;57.40;;;;;;9185395;19;20015;-63
2022/04/21 02:23:13;;;;;;;11.35;4.03;;;9.70;57.40;;;;;;9181887;19;20010;-63
2022/04/21 02:26:18;;;;;;;7.05;4.13;;;9.70;57.50;;;;;;9187074;19;20026;-62
2022/04/21 02:29:23;;;;;;;11.30;3.60;;;9.70;57.50;;;;;;9187003;19;20014;-63
2022/04/21 02:32:28;;;;;;;7.90;3.45;;;9.60;57.50;;;;;;9185037;19;20029;-63
2022/04/21 02:35:33;;;;;;;6.07;3.88;;;9.60;57.50;;;;;;9183633;19;20019;-62
2022/04/21 02:38:41;;;;;;;8.20;4.32;;;9.60;57.60;;;;;;9186598;19;20019;-62
2022/04/21 02:41:46;;;;;;;7.13;3.85;;;9.60;57.70;;;;;;9183924;19;20022;-64
2022/04/21 02:44:51;;;;;;;6.18;3.67;;;9.50;57.80;;;;;;9184615;19;20097;-63
2022/04/21 02:47:56;;;;;;;6.00;3.88;;;9.50;57.70;;;;;;9186699;19;20026;-62
2022/04/21 02:51:01;;;;;;;5.47;3.63;;;9.50;57.80;;;;;;9186065;19;20015;-63
2022/04/21 02:57:27;;;;;;;6.32;3.72;;;9.50;57.90;;;;;;9184689;19;20507;-62
2022/04/21 03:00:33;;;;;;;5.75;3.42;;;9.50;57.90;;;;;;9184245;19;20095;-62
2022/04/21 03:03:37;;;;;;;6.95;4.70;;;9.50;57.90;;;;;;9185886;19;20034;-64
2022/04/21 03:06:42;;;;;;;5.50;3.92;;;9.40;57.90;;;;;;9181749;19;20052;-63
2022/04/21 03:09:50;;;;;;;5.60;3.55;;;9.40;58.00;;;;;;9181729;19;20015;-62
2022/04/21 03:12:58;;;;;;;5.63;3.50;;;9.40;58.00;;;;;;9184905;19;20022;-63
2022/04/21 03:16:03;;;;;;;12.60;3.90;;;9.30;58.00;;;;;;9183917;19;20082;-62
2022/04/21 03:19:08;;;;;;;8.50;3.88;;;9.30;58.10;;;;;;9184862;19;20090;-63
2022/04/21 03:25:37;;;;;;;8.40;3.83;;;9.20;58.20;;;;;;9184756;19;20475;-63
2022/04/21 03:28:42;;;;;;;5.97;3.78;;;9.20;58.20;;;;;;9184198;19;20085;-63
2022/04/21 03:31:48;;;;;;;7.25;4.45;;;9.20;58.20;;;;;;9183064;19;20471;-62
2022/04/21 03:34:53;;;;;;;12.07;4.18;;;9.20;58.30;;;;;;9184595;19;20010;-61
2022/04/21 03:37:58;;;;;;;9.27;4.00;;;9.10;58.30;;;;;;9184414;19;20224;-62
2022/04/21 03:41:06;;;;;;;7.97;3.65;;;9.10;58.40;;;;;;9181477;19;20015;-62
2022/04/21 03:44:11;;;;;;;6.95;4.47;;;9.10;58.50;;;;;;9184714;19;20022;-62
2022/04/21 03:47:16;;;;;;;6.57;4.25;;;9.00;58.50;;;;;;9183619;19;20011;-62
2022/04/21 03:50:21;;;;;;;10.45;4.72;;;9.00;58.60;;;;;;9182850;19;20030;-63
2022/04/21 03:53:26;;;;;;;6.95;4.63;;;9.00;58.70;;;;;;9182177;19;20060;-63
2022/04/21 03:56:35;;;;;;;13.02;4.80;;;9.00;58.70;;;;;;9183156;19;20026;-62
2022/04/21 03:59:40;;;;;;;8.18;4.25;;;8.90;58.70;;;;;;9182474;19;20038;-62
2022/04/21 04:02:45;;;;;;;9.65;4.28;;;8.90;58.80;;;;;;9180763;19;20017;-62
2022/04/21 04:05:50;;;;;;;9.00;4.80;;;8.90;58.80;;;;;;9179187;19;20015;-62
2022/04/21 04:12:15;;;;;;;7.07;4.72;;;8.80;58.80;;;;;;9183034;19;20006;-63
2022/04/21 04:15:21;;;;;;;12.88;5.00;;;8.80;58.90;;;;;;9181258;19;20042;-62
2022/04/21 04:18:26;;;;;;;6.30;4.68;;;8.70;59.00;;;;;;9183567;19;20010;-63
2022/04/21 04:21:31;;;;;;;8.10;5.13;;;8.70;59.10;;;;;;9176047;19;20018;-62
2022/04/21 04:24:37;;;;;;;7.38;4.85;;;8.70;59.10;;;;;;9182305;19;20039;-62
2022/04/21 04:27:44;;;;;;;9.48;4.88;;;8.70;59.20;;;;;;9181619;19;20017;-63
2022/04/21 04:30:49;;;;;;;10.88;5.38;;;8.60;59.20;;;;;;9178305;19;20049;-63
2022/04/21 04:33:54;;;;;;;10.90;5.18;;;8.60;59.20;;;;;;9181088;19;20029;-62
2022/04/21 04:36:59;;;;;;;11.18;5.85;;;8.50;59.30;;;;;;9180171;19;20022;-62
2022/04/21 04:40:05;;;;;;;7.75;5.03;;;8.50;59.40;;;;;;9179696;19;20128;-61
2022/04/21 04:43:12;;;;;;;9.25;5.35;;;8.50;59.40;;;;;;9180072;19;20500;-62
2022/04/21 04:49:34;;;;;;;12.23;5.72;;;8.40;59.50;;;;;;9179695;19;20009;-63
2022/04/21 04:52:40;;;;;;;7.88;4.93;;;8.40;59.60;;;;;;9182258;19;20011;-62
2022/04/21 04:55:45;;;;;;;12.23;5.63;;;8.30;59.60;;;;;;9181403;19;20471;-63
2022/04/21 04:58:53;;;;;;;7.88;5.60;;;8.30;59.70;;;;;;9179497;19;20344;-63
2022/04/21 05:01:58;;;;;;;14.15;6.03;;;8.30;59.80;;;;;;9177761;19;20019;-62
2022/04/21 05:05:03;;;;;;;12.13;5.70;;;8.30;59.90;;;;;;9179647;19;20018;-62
2022/04/21 05:08:08;;;;;;;14.35;6.20;;;8.20;59.90;;;;;;9177783;19;20090;-62
2022/04/21 05:11:13;;;;;;;9.48;6.10;;;8.20;60.00;;;;;;9180604;19;20019;-62
2022/04/21 05:14:21;;;;;;;10.60;6.15;;;8.20;60.10;;;;;;9181040;19;20021;-62
2022/04/21 05:17:27;;;;;;;10.55;5.78;;;8.20;60.20;;;;;;9181499;19;20507;-63
2022/04/21 05:20:53;;;;;;;11.55;5.38;;;8.20;60.20;;;;;;9183551;19;20111;-62
2022/04/21 05:23:59;;;;;;;10.18;6.43;;;8.20;60.30;;;;;;9183737;19;20052;-62
2022/04/21 05:27:05;;;;;;;10.70;5.13;;;8.20;60.40;;;;;;9184092;19;20065;-61
2022/04/21 05:33:35;;;;;;;;;;;8.20;60.50;;;;;;9187544;19;20049;-62
2022/04/21 05:36:41;;;;;;;12.52;5.97;;;8.20;60.40;;;;;;9186398;19;19915;-63
2022/04/21 05:39:47;;;;;;;11.43;5.78;;;8.20;60.30;;;;;;9188433;19;20010;-62
2022/04/21 05:42:55;;;;;;;11.75;6.00;;;8.20;60.40;;;;;;9185434;19;20360;-62
2022/04/21 05:46:04;;;;;;;19.80;6.18;;;8.30;60.70;;;;;;9185558;19;20017;-63
2022/04/21 05:49:09;;;;;;;9.43;5.85;;;8.30;60.80;;;;;;9188646;19;20034;-61
2022/04/21 05:52:16;;;;;;;15.25;6.05;;;8.40;60.90;;;;;;9189438;19;20368;-63
2022/04/21 05:55:22;;;;;;;10.35;6.78;;;8.50;61.10;;;;;;9186926;19;20018;-63
2022/04/21 05:58:27;;;;;;;8.82;6.28;;;8.60;61.10;;;;;;9188350;19;20017;-63
2022/04/21 06:01:35;;;;;;;22.87;6.43;;;8.70;61.20;;;;;;9187022;19;20019;-64
2022/04/21 06:04:40;;;;;;;10.20;5.93;;;8.90;61.40;;;;;;9185060;19;20039;-63
2022/04/21 06:07:45;;;;;;;10.68;5.35;;;9.00;61.30;;;;;;9184410;19;20056;-62
2022/04/21 06:10:50;;;;;;;13.75;7.60;;;9.10;61.30;;;;;;9183564;19;20026;-63
2022/04/21 06:13:55;;;;;;;10.52;5.85;;;9.30;61.50;;;;;;9187991;19;20464;-63
2022/04/21 06:17:03;;;;;;;15.15;6.40;;;9.40;61.40;;;;;;9183199;19;20822;-63
2022/04/21 06:20:09;;;;;;;12.38;6.45;;;9.60;61.50;;;;;;9173170;19;20022;-63
2022/04/21 06:23:15;;;;;;;12.00;6.68;;;9.80;61.50;;;;;;9163403;19;20015;-64
2022/04/21 06:26:25;;;;;;;11.95;5.90;;;9.90;61.30;;;;;;9174426;19;20019;-63
2022/04/21 06:29:30;;;;;;;11.38;5.55;;;10.10;61.30;;;;;;9172036;19;20015;-63
2022/04/21 06:32:38;;;;;;;10.80;5.22;;;10.30;61.20;;;;;;9170697;19;20038;-63
2022/04/21 06:35:44;;;;;;;10.50;5.63;;;10.40;61.10;;;;;;9170872;19;20085;-63
2022/04/21 06:38:51;;;;;;;12.88;5.95;;;10.60;61.00;;;;;;9181791;19;20085;-62
2022/04/21 06:41:56;;;;;;;9.30;5.43;;;10.70;60.90;;;;;;9180787;19;20108;-67
2022/04/21 06:48:33;;;;;;;11.35;4.90;;;11.00;60.60;;;;;;9176834;19;20018;-64
2022/04/21 06:51:40;;;;;;;12.85;5.88;;;11.20;60.60;;;;;;9180215;19;20021;-64
2022/04/21 06:54:45;;;;;;;10.38;5.38;;;11.30;60.50;;;;;;9178309;19;20019;-66
2022/04/21 06:57:50;;;;;;;12.15;5.28;;;11.40;60.40;;;;;;9178827;19;20384;-67
2022/04/21 07:00:56;;;;;;;15.93;5.28;;;11.60;60.40;;;;;;9180777;19;20020;-65
2022/04/21 07:04:03;;;;;;;8.85;4.40;;;11.70;60.30;;;;;;9176321;19;20081;-70
2022/04/21 07:07:09;;;;;;;7.85;4.93;;;11.90;60.20;;;;;;9178074;19;20456;-68
2022/04/21 07:10:14;;;;;;;8.02;5.30;;;12.00;60.00;;;;;;9182459;19;20021;-67
2022/04/21 07:13:19;;;;;;;11.95;5.13;;;12.20;59.90;;;;;;9178793;19;20010;-67
2022/04/21 07:16:24;;;;;;;10.27;4.80;;;12.30;59.70;;;;;;9179857;19;20380;-66
2022/04/21 07:19:32;;;;;;;8.25;4.55;;;12.40;59.60;;;;;;9177083;19;20033;-66
2022/04/21 07:22:37;;;;;;;9.73;4.78;;;12.50;59.50;;;;;;9175549;19;20029;-67
2022/04/21 07:25:42;;;;;;;7.13;4.95;;;12.60;59.50;;;;;;9177490;19;20049;-66
2022/04/21 07:28:47;;;;;;;9.30;4.43;;;12.70;59.50;;;;;;9178351;19;20523;-65
2022/04/21 07:31:53;;;;;;;10.93;4.93;;;12.90;59.50;;;;;;9177747;19;20038;-67
2022/04/21 07:35:02;;;;;;;7.93;4.72;;;13.10;59.40;;;;;;9177661;19;20041;-67
2022/04/21 07:38:08;;;;;;;9.65;4.65;;;13.30;59.20;;;;;;9178982;19;20019;-67
2022/04/21 07:41:13;;;;;;;6.97;4.05;;;13.40;59.00;;;;;;9178236;19;20014;-66
2022/04/21 07:44:19;;;;;;;7.50;3.97;;;13.60;58.80;;;;;;9175221;19;20022;-64
2022/04/21 07:47:24;;;;;;;6.90;4.20;;;13.70;58.60;;;;;;9177852;19;20458;-63
2022/04/21 07:50:31;;;;;;;8.55;4.18;;;13.80;58.40;;;;;;9178507;19;20022;-65
2022/04/21 07:53:56;;;;;;;5.15;3.28;;;14.00;58.40;;;;;;9178765;19;20033;-64
2022/04/21 07:57:01;;;;;;;8.07;3.33;;;14.10;58.30;;;;;;9178368;19;20055;-64
2022/04/21 08:00:08;;;;;;;5.60;2.97;;;14.20;58.10;;;;;;9178557;19;20020;-64
2022/04/21 08:03:19;;;;;;;10.82;3.58;;;14.30;57.90;;;;;;9177450;19;20355;-65
2022/04/21 08:06:27;;;;;;;8.32;3.25;;;14.50;57.60;;;;;;9182143;19;20021;-64
2022/04/21 08:09:32;;;;;;;6.85;3.65;;;14.50;57.40;;;;;;9177650;19;20023;-63
2022/04/21 08:12:42;;;;;;;5.95;3.15;;;14.60;57.20;;;;;;9174064;19;20034;-64
2022/04/21 08:15:47;;;;;;;5.60;3.20;;;14.70;57.10;;;;;;9170903;19;20362;-66
2022/04/21 08:18:53;;;;;;;8.38;3.03;;;14.80;57.00;;;;;;9174069;19;20018;-64
2022/04/21 08:22:01;;;;;;;10.77;2.95;;;14.90;56.70;;;;;;9167417;19;20498;-65
2022/04/21 08:32:41;;;;;;;6.43;2.72;;;15.20;56.20;;;;;;9168541;19;20634;-64
2022/04/21 08:35:47;;;;;;;4.18;2.55;;;15.30;56.00;;;;;;9168824;19;20014;-65
2022/04/21 08:38:55;;;;;;;3.55;2.63;;;15.30;55.90;;;;;;9171325;19;20014;-65
2022/04/21 08:42:10;;;;;;;21.40;2.90;;;15.40;55.70;;;;;;9171482;19;20026;-65
2022/04/21 08:45:15;;;;;;;9.25;2.63;;;15.60;55.50;;;;;;9167453;19;20018;-65
2022/04/21 08:48:22;;;;;;;8.57;2.70;;;15.70;55.30;;;;;;9172307;19;20026;-66
2022/04/21 08:51:32;;;;;;;9.38;2.72;;;15.80;55.10;;;;;;9173444;19;20007;-65
2022/04/21 08:54:40;;;;;;;3.47;2.20;;;15.90;54.90;;;;;;9183286;19;20485;-64
2022/04/21 08:57:45;;;;;;;9.35;2.63;;;15.90;54.70;;;;;;9189172;19;20098;-65
2022/04/21 09:00:53;;;;;;;7.75;2.70;;;16.00;54.50;;;;;;9185737;19;20018;-64
2022/04/21 09:03:59;;;;;;;4.97;2.35;;;16.10;54.60;;;;;;9183542;19;20026;-65
2022/04/21 09:07:17;;;;;;;9.45;2.50;;;16.20;54.10;;;;;;9181284;19;20042;-67
2022/04/21 09:10:25;;;;;;;5.00;2.30;;;16.30;53.90;;;;;;9172892;19;20022;-66
2022/04/21 09:13:34;;;;;;;6.13;2.70;;;16.40;53.90;;;;;;9186555;19;20019;-65
2022/04/21 09:16:39;;;;;;;5.32;2.25;;;16.50;53.70;;;;;;9182281;19;20594;-64
2022/04/21 09:19:58;;;;;;;4.75;1.90;;;16.60;53.50;;;;;;9180463;19;20021;-66
2022/04/21 09:23:07;;;;;;;2.92;2.30;;;16.80;53.30;;;;;;9181936;19;20018;-64
2022/04/21 09:26:16;;;;;;;4.38;2.22;;;16.90;53.30;;;;;;9176940;19;20029;-65
2022/04/21 09:29:28;;;;;;;5.13;2.00;;;17.00;53.00;;;;;;9179129;19;20074;-64
2022/04/21 09:32:33;;;;;;;5.22;2.33;;;17.10;52.90;;;;;;9185052;19;20019;-65
2022/04/21 09:35:40;;;;;;;2.97;1.98;;;17.20;52.90;;;;;;9184085;19;20015;-65
2022/04/21 09:38:59;;;;;;;6.30;2.13;;;17.40;52.60;;;;;;9181958;19;20018;-65
2022/04/21 09:42:07;;;;;;;3.72;2.08;;;17.50;52.30;;;;;;9182251;19;20022;-65
2022/04/21 09:48:33;;;;;;;2.45;1.88;;;17.70;52.00;;;;;;9182004;19;20015;-65
2022/04/21 09:51:38;;;;;;;3.25;1.92;;;17.80;51.80;;;;;;9185512;19;20007;-66
2022/04/21 09:54:45;;;;;;;3.28;1.80;;;17.90;51.70;;;;;;9185454;19;20022;-67
2022/04/21 09:58:04;;;;;;;2.63;1.70;;;17.90;51.50;;;;;;9178993;19;20015;-66
2022/04/21 10:01:10;;;;;;;5.22;1.92;;;18.00;51.20;;;;;;9183206;19;20019;-75
2022/04/21 10:04:18;;;;;;;8.55;1.92;;;18.00;51.10;;;;;;9186441;19;20026;-72
2022/04/21 10:07:24;;;;;;;6.57;2.30;;;18.10;51.10;;;;;;9181282;19;20026;-72
2022/04/21 10:10:31;;;;;;;3.97;2.20;;;18.10;50.90;;;;;;9175175;19;20029;-72
2022/04/21 10:13:42;;;;;;;4.05;2.22;;;18.20;50.80;;;;;;9179116;19;20144;-74
2022/04/21 10:16:50;;;;;;;2.55;1.90;;;18.20;50.60;;;;;;9177700;19;20036;-70
2022/04/21 10:19:58;;;;;;;4.53;2.13;;;18.30;50.60;;;;;;9183165;19;20019;-70
2022/04/21 10:23:04;;;;;;;7.10;2.60;;;18.30;50.50;;;;;;9182109;19;20048;-69
2022/04/21 10:26:10;;;;;;;2.90;2.03;;;18.30;50.40;;;;;;9182144;19;20018;-70
2022/04/21 10:29:52;;;;;;;3.30;1.60;;;18.40;50.40;;;;;;9183915;19;20031;-66
2022/04/21 10:32:59;;;;;;;2.75;2.17;;;18.50;50.00;;;;;;9182545;19;20018;-68
2022/04/21 10:36:04;;;;;;;5.72;2.20;;;18.50;50.00;;;;;;9178382;19;20010;-67
2022/04/21 10:39:26;;;;;;;7.05;2.47;;;18.60;49.90;;;;;;9176381;19;20006;-73
2022/04/21 10:42:31;;;;;;;4.32;2.42;;;18.70;49.60;;;;;;9181276;19;20475;-72
2022/04/21 10:45:39;;;;;;;10.82;2.25;;;18.70;49.70;;;;;;9178890;19;20018;-71
2022/04/21 10:48:45;;;;;;;3.25;2.50;;;18.90;49.70;;;;;;9180954;19;20015;-70
2022/04/21 10:58:59;;;;;;;3.95;2.20;;;19.20;49.20;;;;;;9180875;19;20022;-70
2022/04/21 11:02:15;;;;;;;9.77;2.30;;;19.30;49.00;;;;;;9177449;19;20590;-73
2022/04/21 11:05:30;;;;;;;6.50;2.10;;;19.40;48.80;;;;;;9180484;19;20204;-70
2022/04/21 11:08:35;;;;;;;3.35;1.98;;;19.50;48.70;;;;;;9179899;19;20472;-72
2022/04/21 11:11:48;;;;;;;7.22;2.20;;;19.50;48.60;;;;;;9186123;19;20014;-69
2022/04/21 11:14:53;;;;;;;7.95;2.33;;;19.60;48.30;;;;;;9183004;19;20045;-70
2022/04/21 11:18:09;;;;;;;6.82;2.20;;;19.70;48.20;;;;;;9183422;19;20033;-70
2022/04/21 11:21:26;;;;;;;5.47;2.30;;;19.70;47.90;;;;;;9184555;19;20656;-71
2022/04/21 11:25:06;;;;;;;5.32;1.90;;;19.70;47.70;;;;;;9176647;19;20119;-70
2022/04/21 11:28:14;;;;;;;3.58;1.88;;;19.70;47.40;;;;;;9182099;19;20029;-71
2022/04/21 11:31:24;;;;;;;8.27;2.80;;;19.70;47.60;;;;;;9178106;19;20025;-72
2022/04/21 11:34:33;;;;;;;8.50;2.33;;;19.70;47.60;;;;;;9184485;19;20019;-74
2022/04/21 11:37:57;;;;;;;5.85;2.42;;;19.70;47.60;;;;;;9181706;19;20021;-72
2022/04/21 11:41:04;;;;;;;7.72;2.53;;;19.70;47.50;;;;;;9179042;19;20018;-72
2022/04/21 11:44:10;;;;;;;11.35;2.70;;;19.70;47.50;;;;;;9176397;19;20026;-70
2022/04/21 11:47:21;;;;;;;3.95;2.30;;;19.80;47.40;;;;;;9178947;19;20018;-70
2022/04/21 11:50:30;;;;;;;8.85;2.50;;;19.80;47.20;;;;;;9179652;19;20489;-71
2022/04/21 11:53:37;;;;;;;7.97;2.78;;;19.80;47.10;;;;;;9180558;19;20007;-70
2022/04/21 11:56:42;;;;;;;6.10;2.10;;;19.80;46.90;;;;;;9180729;19;20047;-68
2022/04/21 11:59:47;;;;;;;4.88;2.42;;;19.80;46.90;;;;;;9177755;19;20021;-72
2022/04/21 12:06:32;;;;;;;5.32;2.55;;;19.70;46.70;;;;;;9178425;19;20345;-70
2022/04/21 12:09:42;;;;;;;6.10;2.42;;;19.60;46.80;;;;;;9172707;19;20082;-69
2022/04/21 12:12:47;;;;;;;7.57;3.00;;;19.50;46.80;;;;;;9177661;19;20022;-68
2022/04/21 12:15:57;;;;;;;12.70;2.92;;;19.50;46.90;;;;;;9177576;19;20558;-69
2022/04/21 12:19:12;;;;;;;10.75;2.53;;;19.50;46.90;;;;;;9175844;19;20011;-70
2022/04/21 12:22:21;;;;;;;11.48;2.38;;;19.50;46.80;;;;;;9177964;19;20025;-73
2022/04/21 12:25:32;;;;;;;9.30;2.28;;;19.50;46.80;;;;;;9177089;19;20364;-72
2022/04/21 12:28:49;;;;;;;6.32;2.60;;;19.50;46.70;;;;;;9177471;19;20018;-70
2022/04/21 12:31:56;;;;;;;7.60;2.47;;;19.60;46.70;;;;;;9179888;19;20014;-71
2022/04/21 12:35:03;;;;;;;9.45;2.30;;;19.60;46.70;;;;;;9178774;19;20465;-70
2022/04/21 12:41:29;;;;;;;4.88;2.85;;;19.60;46.70;;;;;;9177784;19;20018;-70
2022/04/21 12:44:34;;;;;;;11.20;3.17;;;19.60;46.80;;;;;;9179784;19;21277;-71
2022/04/21 12:47:45;;;;;;;9.73;2.55;;;19.70;46.80;;;;;;9178960;19;20499;-71
2022/04/21 12:50:50;;;;;;;2.97;2.15;;;19.70;46.70;;;;;;9178490;19;20019;-70
2022/04/21 12:54:01;;;;;;;10.77;2.47;;;19.80;46.80;;;;;;9176523;19;20022;-72
2022/04/21 12:57:10;;;;;;;10.07;2.90;;;19.90;46.80;;;;;;9177975;19;20019;-72
2022/04/21 13:00:16;;;;;;;3.78;2.53;;;19.90;46.70;;;;;;9172024;19;20015;-70
2022/04/21 13:03:21;;;;;;;5.93;2.35;;;19.90;46.60;;;;;;9169271;19;20018;-68
2022/04/21 13:06:30;;;;;;;6.95;2.15;;;19.90;46.60;;;;;;9167305;19;20503;-68
2022/04/21 13:09:38;;;;;;;6.55;1.88;;;19.90;46.60;;;;;;9164560;19;20551;-73
2022/04/21 13:12:43;;;;;;;6.93;2.03;;;19.90;46.70;;;;;;9172949;19;20018;-71
2022/04/21 13:15:49;;;;;;;5.50;1.77;;;19.90;46.70;;;;;;9171024;19;20051;-68
2022/04/21 13:18:56;;;;;;;8.32;2.35;;;19.90;46.70;;;;;;9172724;19;20365;-72
2022/04/21 13:22:00;;;;;;;8.20;2.60;;;19.90;46.80;;;;;;9173939;19;20006;-71
2022/04/21 13:25:09;;;;;;;4.70;2.88;;;19.80;46.90;;;;;;9170470;19;20022;-69
2022/04/21 13:28:14;;;;;;;4.75;2.03;;;19.80;47.30;;;;;;9171012;19;20549;-70
2022/04/21 13:34:37;;;;;;;4.25;2.50;;;19.70;47.00;;;;;;9170835;19;20014;-71
2022/04/21 13:37:42;;;;;;;7.13;2.70;;;19.70;47.00;;;;;;9171340;19;20061;-68
2022/04/21 13:40:50;;;;;;;11.60;2.90;;;19.70;47.10;;;;;;9185354;19;20022;-68
2022/04/21 13:43:55;;;;;;;3.92;2.75;;;19.70;47.20;;;;;;9185506;19;20503;-70
2022/04/21 13:47:20;;;;;;;4.10;2.47;;;19.60;47.10;;;;;;9181518;19;20537;-67
2022/04/21 13:50:25;;;;;;;10.82;3.67;;;19.50;47.20;;;;;;9186223;19;20011;-72
2022/04/21 13:53:30;;;;;;;4.78;2.70;;;19.50;47.30;;;;;;9184569;19;20018;-71
2022/04/21 13:56:38;;;;;;;11.43;3.28;;;19.40;47.30;;;;;;9183732;19;20015;-71
2022/04/21 13:59:43;;;;;;;9.32;3.53;;;19.40;47.40;;;;;;9185008;19;20708;-71
2022/04/21 14:02:48;;;;;;;10.70;3.20;;;19.40;47.40;;;;;;9180697;19;20487;-69
2022/04/21 14:05:53;;;;;;;7.55;3.20;;;19.40;47.40;;;;;;9181341;19;20029;-71
2022/04/21 14:08:59;;;;;;;12.98;3.17;;;19.40;47.40;;;;;;9179298;19;20489;-70
2022/04/21 14:12:08;;;;;;;15.95;3.30;;;19.40;47.50;;;;;;9185555;19;20026;-70
2022/04/21 14:15:16;;;;;;;8.07;3.35;;;19.40;47.40;;;;;;9183194;19;20013;-72
2022/04/21 14:18:21;;;;;;;7.20;3.53;;;19.30;47.40;;;;;;9183463;19;20513;-71
2022/04/21 14:21:26;;;;;;;6.82;2.90;;;19.30;47.40;;;;;;9185139;19;20019;-71
2022/04/21 14:24:31;;;;;;;8.98;3.03;;;19.30;47.50;;;;;;9181934;19;20010;-71
2022/04/21 14:27:39;;;;;;;12.05;2.97;;;19.20;47.60;;;;;;9179042;19;20500;-73
2022/04/21 14:30:44;;;;;;;8.95;3.10;;;19.20;47.60;;;;;;9185774;19;20553;-71
2022/04/21 14:33:49;;;;;;;8.77;2.78;;;19.10;47.60;;;;;;9182481;19;20015;-69
2022/04/21 14:36:57;;;;;;;5.03;2.28;;;19.10;47.70;;;;;;9181573;19;20006;-72
2022/04/21 14:46:44;;;;;;;7.35;2.55;;;18.90;47.80;;;;;;9184768;19;20010;-70
2022/04/21 14:50:11;;;;;;;6.68;2.75;;;18.80;48.50;;;;;;9173082;19;20070;-70
2022/04/21 14:53:16;;;;;;;4.43;2.47;;;18.70;47.90;;;;;;9178793;19;20014;-70
2022/04/21 14:56:21;;;;;;;5.75;2.90;;;18.70;48.00;;;;;;9181999;19;20497;-70
2022/04/21 14:59:31;;;;;;;8.27;3.80;;;18.60;48.10;;;;;;9178746;19;20464;-70
2022/04/21 15:02:37;;;;;;;8.27;3.40;;;18.50;48.10;;;;;;9176799;19;20018;-70
2022/04/21 15:05:43;;;;;;;7.47;2.80;;;18.50;48.30;;;;;;9175590;19;20010;-69
2022/04/21 15:08:48;;;;;;;5.50;2.42;;;18.50;48.40;;;;;;9175713;19;20022;-69
2022/04/21 15:11:53;;;;;;;10.88;3.03;;;18.50;48.40;;;;;;9175284;19;20023;-71
2022/04/21 15:15:00;;;;;;;10.70;3.00;;;18.40;48.40;;;;;;9175884;19;20014;-69
2022/04/21 15:18:06;;;;;;;3.78;2.70;;;18.40;48.50;;;;;;9172603;19;20051;-69
2022/04/21 15:21:12;;;;;;;5.80;2.83;;;18.30;48.60;;;;;;9176729;19;20786;-72
2022/04/21 15:24:16;;;;;;;5.63;2.72;;;18.30;48.60;;;;;;9174466;19;20022;-72
2022/04/21 15:27:22;;;;;;;5.55;2.50;;;18.30;48.60;;;;;;9172121;19;20865;-70
2022/04/21 15:30:35;;;;;;;7.88;2.75;;;18.30;48.60;;;;;;9175515;19;20041;-71
2022/04/21 15:33:41;;;;;;;;;;;18.30;48.70;;;;;;9175488;19;20502;-71
2022/04/21 15:36:46;;;;;;;8.02;3.58;;;18.30;48.70;;;;;;9170623;19;20312;-72
2022/04/21 15:39:51;;;;;;;6.00;3.08;;;18.30;48.80;;;;;;9173708;19;20015;-72
2022/04/21 15:42:56;;;;;;;5.63;3.05;;;18.30;48.80;;;;;;9172989;19;20025;-73
2022/04/21 15:46:04;;;;;;;6.25;2.70;;;18.30;49.00;;;;;;9175845;19;20025;-68
2022/04/21 15:49:09;;;;;;;12.27;3.17;;;18.30;49.00;;;;;;9179088;19;20018;-71
2022/04/21 15:52:14;;;;;;;10.27;2.95;;;18.40;49.00;;;;;;9180452;19;20022;-70
2022/04/21 15:58:51;;;;;;;7.75;3.20;;;18.40;49.00;;;;;;9180588;19;20014;-72
2022/04/21 16:01:59;;;;;;;11.30;3.30;;;18.40;49.00;;;;;;9177217;19;20376;-73
2022/04/21 16:05:04;;;;;;;12.57;2.90;;;18.50;48.90;;;;;;9167522;19;20051;-72
2022/04/21 16:08:10;;;;;;;13.52;3.15;;;18.50;48.90;;;;;;9172284;19;20024;-71
2022/04/21 16:11:15;;;;;;;7.18;2.88;;;18.50;48.90;;;;;;9166703;19;20021;-69
2022/04/21 16:14:20;;;;;;;6.28;2.70;;;18.60;48.90;;;;;;9175212;19;20014;-66
2022/04/21 16:17:48;;;;;;;5.32;2.72;;;18.60;48.80;;;;;;9175475;19;20022;-65
2022/04/21 16:20:53;;;;;;;6.03;3.00;;;18.70;48.90;;;;;;9177167;19;20018;-64
2022/04/21 16:23:58;;;;;;;12.10;3.20;;;18.60;48.80;;;;;;9174219;19;20017;-65
2022/04/21 16:27:03;;;;;;;14.15;3.53;;;18.70;48.80;;;;;;9174578;19;20026;-64
2022/04/21 16:30:09;;;;;;;8.18;2.95;;;18.70;48.80;;;;;;9174668;19;20022;-65
2022/04/21 16:33:17;;;;;;;9.73;2.70;;;18.70;48.70;;;;;;9176339;19;20086;-64
2022/04/21 16:36:22;;;;;;;8.05;3.00;;;18.60;48.50;;;;;;9176203;19;20479;-64
2022/04/21 16:39:27;;;;;;;11.77;3.00;;;18.60;48.60;;;;;;9176811;19;20010;-64
2022/04/21 16:42:32;;;;;;;7.30;2.83;;;18.60;48.60;;;;;;9176134;19;20022;-66
2022/04/21 16:45:37;;;;;;;15.23;3.22;;;18.50;48.60;;;;;;9175056;19;20018;-65
2022/04/21 16:48:44;;;;;;;5.18;3.08;;;18.50;48.70;;;;;;9170953;19;20019;-64
2022/04/21 16:51:49;;;;;;;11.48;3.80;;;18.40;48.70;;;;;;9173742;19;20022;-65
2022/04/21 16:55:00;;;;;;;8.25;3.22;;;18.40;48.80;;;;;;9172574;19;20039;-65
2022/04/21 16:58:05;;;;;;;8.60;3.28;;;18.30;48.70;;;;;;9173464;19;20026;-65
2022/04/21 17:04:33;;;;;;;11.00;3.30;;;18.20;48.80;;;;;;9173762;19;20021;-65
2022/04/21 17:07:39;;;;;;;6.07;3.30;;;18.10;48.80;;;;;;9171998;19;20437;-64
2022/04/21 17:10:43;;;;;;;8.10;3.40;;;18.10;48.90;;;;;;9170305;19;20508;-65
2022/04/21 17:13:49;;;;;;;8.65;3.20;;;18.00;48.90;;;;;;9174067;19;20125;-65
2022/04/21 17:16:54;;;;;;;14.43;3.72;;;18.00;48.90;;;;;;9183645;19;20066;-65
2022/04/21 17:20:02;;;;;;;10.45;3.70;;;17.90;49.00;;;;;;9182301;19;20082;-64
2022/04/21 17:23:07;;;;;;;7.50;3.35;;;17.90;49.10;;;;;;9182632;19;20018;-65
2022/04/21 17:26:12;;;;;;;14.32;3.30;;;17.90;49.20;;;;;;9181843;19;20036;-65